Time;durP1;ratioP1;P1;durP2;ratioP2;P2;SDS_P1;SDS_P2;PMS_P1;PMS_P2;Temp;Humidity;BMP_temperature;BMP_pressure;BME280_temperature;BME280_humidity;BME280_pressure;Samples;Min_cycle;Max_cycle;Signal;HPM_P1;HPM_P2
2021/09/20 00:01:52;;;;;;;;;4.25;0.75;;;;;18.85;63.57;101326.19;6279041;22;45208;-73
2021/09/20 00:04:17;;;;;;;;;0.00;0.00;;;;;18.80;63.78;101321.00;6278836;22;45252;-74
2021/09/20 00:06:43;;;;;;;;;2.00;1.00;;;;;18.95;63.60;101350.88;6276988;22;45195;-74
2021/09/20 00:09:08;;;;;;;;;0.00;0.00;;;;;18.93;63.79;101342.84;6302799;22;45260;-74
2021/09/20 00:11:34;;;;;;;;;7.00;6.25;;;;;18.83;63.86;101339.81;6279139;22;45737;-73
2021/09/20 00:13:59;;;;;;;;;5.75;5.00;;;;;18.87;63.61;101345.91;6278841;22;45535;-73
2021/09/20 00:16:25;;;;;;;;;0.00;0.00;;;;;18.95;63.24;101367.13;6279153;22;45215;-73
2021/09/20 00:18:50;;;;;;;;;0.00;0.00;;;;;18.68;63.27;101324.44;6277053;22;45193;-73
2021/09/20 00:21:16;;;;;;;;;1.00;0.00;;;;;18.81;63.82;101357.03;6303168;22;45536;-73
2021/09/20 00:23:41;;;;;;;;;0.00;0.00;;;;;18.86;63.23;101363.97;6279116;22;45354;-74
2021/09/20 00:26:07;;;;;;;;;0.00;0.00;;;;;18.59;63.91;101309.59;6276891;22;45639;-73
2021/09/20 00:28:33;;;;;;;;;0.00;0.00;;;;;18.70;63.45;101333.31;6303001;22;45344;-73
2021/09/20 00:30:58;;;;;;;;;0.00;0.00;;;;;18.60;63.57;101321.28;6303035;22;45274;-73
2021/09/20 00:33:24;;;;;;;;;0.50;0.00;;;;;18.69;63.80;101337.88;6277139;22;48201;-73
2021/09/20 00:35:49;;;;;;;;;0.00;0.00;;;;;18.71;63.71;101340.50;6278840;22;45236;-74
2021/09/20 00:38:17;;;;;;;;;2.00;0.25;;;;;18.78;63.67;101358.09;6279276;22;45230;-73
2021/09/20 00:40:42;;;;;;;;;0.25;0.00;;;;;18.73;63.59;101351.19;6302899;22;45883;-74
2021/09/20 00:43:08;;;;;;;;;0.75;0.00;;;;;18.69;63.49;101345.09;6302823;22;46963;-73
2021/09/20 00:45:34;;;;;;;;;0.00;0.00;;;;;18.51;63.41;101326.25;6303390;22;45232;-73
2021/09/20 00:47:59;;;;;;;;;0.00;0.00;;;;;18.66;63.98;101348.84;6278840;22;45327;-74
2021/09/20 00:50:24;;;;;;;;;1.00;0.00;;;;;18.67;63.97;101357.84;6279289;22;45164;-73
2021/09/20 00:52:50;;;;;;;;;1.00;0.00;;;;;18.61;64.01;101353.66;6279108;22;45455;-73
2021/09/20 00:55:16;;;;;;;;;0.00;0.00;;;;;18.60;63.98;101356.44;6277240;22;46021;-73
2021/09/20 00:57:44;;;;;;;;;0.00;0.00;;;;;18.46;63.99;101339.16;6277254;22;45413;-73
2021/09/20 01:00:11;;;;;;;;;1.00;1.00;;;;;18.55;64.16;101345.00;6278655;22;45260;-73
2021/09/20 01:02:36;;;;;;;;;0.00;0.00;;;;;18.56;64.67;101346.75;6279141;22;45287;-73
2021/09/20 01:05:03;;;;;;;;;0.00;0.00;;;;;18.50;64.63;101337.16;6276927;22;45200;-73
2021/09/20 01:07:28;;;;;;;;;0.00;0.00;;;;;18.41;64.31;101326.84;6277277;22;45249;-73
2021/09/20 01:09:54;;;;;;;;;1.00;1.00;;;;;18.44;64.30;101332.97;6278670;22;45405;-73
2021/09/20 01:12:19;;;;;;;;;0.00;0.00;;;;;18.41;64.42;101322.34;6278368;22;45414;-73
2021/09/20 01:14:45;;;;;;;;;0.00;0.00;;;;;18.51;65.01;101336.22;6276579;22;45621;-73
2021/09/20 01:17:10;;;;;;;;;1.00;0.00;;;;;18.43;64.68;101333.94;6278630;22;45396;-73
2021/09/20 01:19:36;;;;;;;;;0.00;0.00;;;;;18.26;64.96;101301.53;6278283;22;45360;-73
2021/09/20 01:22:05;;;;;;;;;0.00;0.00;;;;;18.49;64.99;101340.81;6278879;22;46111;-73
2021/09/20 01:24:31;;;;;;;;;0.00;0.00;;;;;18.23;64.83;101293.63;6276645;22;46064;-73
2021/09/20 01:27:01;;;;;;;;;1.75;1.00;;;;;18.29;65.06;101309.50;6278052;22;45228;-73
2021/09/20 01:29:27;;;;;;;;;0.25;0.00;;;;;18.32;64.95;101309.31;6277958;22;45360;-73
2021/09/20 01:31:53;;;;;;;;;0.75;0.50;;;;;18.43;65.58;101331.22;6277974;22;46809;-73
2021/09/20 01:34:18;;;;;;;;;1.00;1.00;;;;;18.41;65.20;101324.16;6278697;22;45305;-73
2021/09/20 01:36:44;;;;;;;;;2.50;0.25;;;;;18.43;65.63;101336.63;6278992;22;45312;-73
2021/09/20 01:39:17;;;;;;;;;0.75;0.75;;;;;18.37;65.63;101322.59;6277168;22;45243;-74
2021/09/20 01:41:43;;;;;;;;;0.25;0.25;;;;;18.32;65.29;101312.88;6278460;22;45918;-73
2021/09/20 01:44:08;;;;;;;;;0.00;0.00;;;;;18.41;65.82;101329.56;6278669;22;45330;-73
2021/09/20 01:46:34;;;;;;;;;0.25;0.25;;;;;18.29;65.56;101304.97;6278895;22;45254;-73
2021/09/20 01:49:01;;;;;;;;;1.00;1.00;;;;;18.47;65.66;101327.38;6278390;22;45228;-73
2021/09/20 01:51:27;;;;;;;;;1.50;1.00;;;;;18.39;65.85;101309.84;6276663;22;47075;-73
2021/09/20 01:53:52;;;;;;;;;1.00;0.75;;;;;18.52;65.75;101330.69;6302775;22;45175;-73
2021/09/20 01:56:17;;;;;;;;;1.00;1.00;;;;;18.53;65.52;101328.88;6276762;22;45180;-73
2021/09/20 01:58:43;;;;;;;;;1.50;0.00;;;;;18.54;65.14;101332.44;6276474;22;45616;-73
2021/09/20 02:01:08;;;;;;;;;1.00;1.00;;;;;18.51;65.30;101320.84;6278378;22;46003;-73
2021/09/20 02:03:33;;;;;;;;;1.50;0.75;;;;;18.56;65.43;101325.13;6276629;22;45191;-73
2021/09/20 02:05:59;;;;;;;;;2.00;1.00;;;;;18.49;65.35;101319.19;6303099;22;45271;-73
2021/09/20 02:08:24;;;;;;;;;0.75;0.75;;;;;18.51;65.49;101315.44;6278032;22;45530;-73
2021/09/20 02:10:50;;;;;;;;;1.50;1.00;;;;;18.36;65.77;101301.91;6301986;22;47991;-73
2021/09/20 02:13:15;;;;;;;;;0.75;0.75;;;;;18.45;65.67;101306.81;6278069;22;45361;-73
2021/09/20 02:15:40;;;;;;;;;4.00;1.25;;;;;18.31;65.70;101284.13;6302853;22;45340;-73
2021/09/20 02:18:06;;;;;;;;;2.25;0.75;;;;;18.35;66.04;101292.06;6278270;22;45306;-73
2021/09/20 02:20:32;;;;;;;;;0.25;0.00;;;;;18.40;65.67;101303.50;6278478;22;46304;-73
2021/09/20 02:22:57;;;;;;;;;1.75;1.50;;;;;18.44;65.88;101305.06;6278356;22;45290;-73
2021/09/20 02:25:23;;;;;;;;;2.00;2.00;;;;;18.40;65.79;101298.09;6278619;22;45566;-73
2021/09/20 02:27:49;;;;;;;;;1.25;0.25;;;;;18.40;66.13;101300.78;6276123;22;45337;-73
2021/09/20 02:30:15;;;;;;;;;0.75;0.75;;;;;18.41;65.58;101300.72;6302094;22;47087;-73
2021/09/20 02:32:41;;;;;;;;;2.25;0.25;;;;;18.30;65.84;101282.38;6278495;22;45389;-73
2021/09/20 02:35:07;;;;;;;;;1.00;1.00;;;;;18.54;65.54;101313.53;6278509;22;45136;-73
2021/09/20 02:37:33;;;;;;;;;4.00;2.00;;;;;18.55;65.61;101304.47;6276620;22;45436;-73
2021/09/20 02:39:59;;;;;;;;;0.00;0.00;;;;;18.48;66.01;101303.94;6278031;22;45303;-73
2021/09/20 02:42:25;;;;;;;;;0.00;0.00;;;;;18.52;65.54;101306.34;6277521;22;45395;-73
2021/09/20 02:44:50;;;;;;;;;2.00;2.00;;;;;18.47;65.71;101308.44;6278296;22;45263;-73
2021/09/20 02:47:16;;;;;;;;;1.75;1.75;;;;;18.52;65.41;101309.06;6276384;22;45701;-73
2021/09/20 02:49:41;;;;;;;;;3.75;1.00;;;;;18.55;65.23;101312.56;6302001;22;47305;-73
2021/09/20 02:52:07;;;;;;;;;1.25;1.00;;;;;18.36;66.02;101286.59;6276514;22;45536;-74
2021/09/20 02:54:32;;;;;;;;;3.00;2.00;;;;;18.30;66.04;101273.41;6278401;22;45525;-73
2021/09/20 02:56:58;;;;;;;;;1.75;1.75;;;;;18.39;65.85;101283.69;6278452;22;45306;-73
2021/09/20 02:59:23;;;;;;;;;2.25;1.50;;;;;18.43;66.13;101293.38;6277835;22;45306;-73
2021/09/20 03:01:49;;;;;;;;;0.75;0.75;;;;;18.44;65.53;101308.66;6277962;22;45248;-73
2021/09/20 03:04:14;;;;;;;;;0.50;0.50;;;;;18.39;66.17;101301.75;6278753;22;45315;-73
2021/09/20 03:06:39;;;;;;;;;1.00;1.00;;;;;18.47;66.19;101316.56;6275927;22;45346;-73
2021/09/20 03:09:05;;;;;;;;;0.75;0.75;;;;;18.38;65.63;101303.59;6277416;22;45192;-73
2021/09/20 03:11:30;;;;;;;;;0.75;0.75;;;;;18.38;66.38;101300.03;6278353;22;45366;-73
2021/09/20 03:13:56;;;;;;;;;1.25;0.00;;;;;18.44;66.13;101311.34;6302316;22;45322;-73
2021/09/20 03:16:21;;;;;;;;;0.50;0.50;;;;;18.40;66.45;101320.56;6303424;22;45453;-73
2021/09/20 03:18:47;;;;;;;;;2.75;0.25;;;;;18.40;66.20;101314.31;6278815;22;46129;-74
2021/09/20 03:21:12;;;;;;;;;2.25;1.00;;;;;18.36;65.97;101304.63;6279529;22;45268;-74
2021/09/20 03:23:38;;;;;;;;;0.75;0.75;;;;;18.42;66.00;101315.09;6279460;22;45254;-73
2021/09/20 03:26:03;;;;;;;;;0.75;0.75;;;;;18.42;66.35;101320.50;6303286;22;45492;-73
2021/09/20 03:28:28;;;;;;;;;1.00;1.00;;;;;18.38;66.10;101311.69;6278493;22;45944;-73
2021/09/20 03:30:54;;;;;;;;;1.00;1.00;;;;;18.26;66.59;101288.03;6279383;22;45226;-73
2021/09/20 03:33:19;;;;;;;;;1.00;1.00;;;;;18.28;66.21;101289.72;6303594;22;45286;-73
2021/09/20 03:35:44;;;;;;;;;1.00;1.00;;;;;18.38;66.65;101309.00;6279445;22;45457;-73
2021/09/20 03:38:10;;;;;;;;;1.00;1.00;;;;;18.46;66.14;101320.25;6278925;22;45293;-73
2021/09/20 03:40:35;;;;;;;;;1.00;1.00;;;;;18.41;66.21;101308.81;6276982;22;46054;-73
2021/09/20 03:43:01;;;;;;;;;1.00;1.00;;;;;18.47;66.19;101321.97;6279459;22;45353;-73
2021/09/20 03:45:26;;;;;;;;;0.75;0.75;;;;;18.40;66.50;101309.78;6279250;22;45278;-73
2021/09/20 03:47:51;;;;;;;;;2.25;1.00;;;;;18.42;66.12;101315.09;6277231;22;48224;-73
2021/09/20 03:50:17;;;;;;;;;1.00;1.00;;;;;18.44;66.68;101314.06;6279280;22;45314;-73
2021/09/20 03:52:43;;;;;;;;;3.25;1.00;;;;;18.36;66.64;101294.69;6279316;22;45263;-73
2021/09/20 03:55:10;;;;;;;;;1.75;1.00;;;;;18.51;66.29;101323.56;6279287;22;45282;-73
2021/09/20 03:57:35;;;;;;;;;1.50;0.75;;;;;18.44;66.53;101313.16;6278753;22;47158;-73
2021/09/20 04:00:01;;;;;;;;;0.75;0.75;;;;;18.50;66.72;101321.81;6302864;22;45405;-73
2021/09/20 04:02:26;;;;;;;;;2.00;2.00;;;;;18.38;66.88;101313.53;6303510;22;45376;-73
2021/09/20 04:04:52;;;;;;;;;2.00;1.25;;;;;18.33;66.60;101300.28;6279372;22;45255;-74
2021/09/20 04:07:17;;;;;;;;;1.00;1.00;;;;;18.41;67.04;101306.13;6277447;22;45316;-73
2021/09/20 04:09:43;;;;;;;;;2.00;2.00;;;;;18.42;66.36;101307.84;6277605;22;45143;-73
2021/09/20 04:12:09;;;;;;;;;2.25;2.25;;;;;18.52;66.73;101316.31;6279324;22;45258;-74
2021/09/20 04:14:38;;;;;;;;;1.25;1.25;;;;;18.58;66.12;101326.78;6279225;22;45305;-73
2021/09/20 04:17:07;;;;;;;;;1.00;1.00;;;;;18.41;66.33;101298.00;6277226;22;47346;-74
2021/09/20 04:19:33;;;;;;;;;1.00;1.00;;;;;18.59;66.34;101327.66;6276544;22;46397;-73
2021/09/20 04:21:59;;;;;;;;;1.00;1.00;;;;;18.48;66.09;101312.91;6277582;22;45308;-73
2021/09/20 04:24:24;;;;;;;;;1.50;1.50;;;;;18.44;66.21;101305.94;6277123;22;45382;-73
2021/09/20 04:26:50;;;;;;;;;0.50;0.25;;;;;18.60;66.36;101324.00;6278899;22;46359;-73
2021/09/20 04:29:16;;;;;;;;;1.00;1.00;;;;;18.55;65.99;101312.56;6278350;22;45298;-74
2021/09/20 04:31:41;;;;;;;;;1.00;1.00;;;;;18.40;66.60;101298.97;6279319;22;45317;-73
2021/09/20 04:34:07;;;;;;;;;2.00;1.00;;;;;18.56;66.31;101319.72;6279093;22;45317;-73
2021/09/20 04:36:32;;;;;;;;;1.75;1.75;;;;;18.39;66.22;101297.19;6279014;22;46079;-73
2021/09/20 04:38:57;;;;;;;;;1.00;1.00;;;;;18.56;66.14;101322.41;6276257;22;45369;-73
2021/09/20 04:41:23;;;;;;;;;2.00;2.00;;;;;18.36;66.52;101294.69;6279369;22;45456;-73
2021/09/20 04:43:48;;;;;;;;;1.00;1.00;;;;;18.50;66.26;101313.69;6276529;22;45348;-73
2021/09/20 04:46:14;;;;;;;;;1.25;1.25;;;;;18.54;65.99;101319.78;6303232;22;47178;-74
2021/09/20 04:48:39;;;;;;;;;1.25;1.25;;;;;18.45;66.32;101304.09;6276557;22;45704;-73
2021/09/20 04:51:04;;;;;;;;;1.25;1.25;;;;;18.44;66.33;101296.94;6303227;22;45404;-73
2021/09/20 04:53:30;;;;;;;;;1.00;1.00;;;;;18.55;66.12;101321.53;6302914;22;45227;-73
2021/09/20 04:55:55;;;;;;;;;2.75;2.00;;;;;18.39;66.54;101305.31;6302994;22;46902;-73
2021/09/20 04:58:20;;;;;;;;;1.50;1.00;;;;;18.39;66.25;101302.59;6275895;22;45155;-74
2021/09/20 05:00:46;;;;;;;;;2.00;2.00;;;;;18.47;66.38;101315.69;6278978;22;45247;-73
2021/09/20 05:03:11;;;;;;;;;2.50;1.50;;;;;18.57;66.51;101338.53;6278399;22;45613;-73
2021/09/20 05:05:37;;;;;;;;;1.00;1.00;;;;;18.45;66.47;101315.78;6279079;22;45237;-73
2021/09/20 05:08:03;;;;;;;;;1.00;1.00;;;;;18.54;66.56;101329.75;6278579;22;45195;-73
2021/09/20 05:10:28;;;;;;;;;2.25;1.25;;;;;18.54;66.71;101327.91;6278394;22;45749;-74
2021/09/20 05:12:54;;;;;;;;;2.25;1.25;;;;;18.39;66.83;101307.16;6278750;22;45076;-73
2021/09/20 05:15:19;;;;;;;;;3.50;1.75;;;;;18.39;66.95;101310.72;6278660;22;45092;-73
2021/09/20 05:17:46;;;;;;;;;1.00;1.00;;;;;18.49;66.70;101336.28;6278225;22;45311;-73
2021/09/20 05:20:13;;;;;;;;;3.75;1.50;;;;;18.42;66.19;101321.34;6277183;22;45291;-74
2021/09/20 05:22:39;;;;;;;;;2.00;2.00;;;;;18.56;66.46;101357.56;6276931;22;45335;-73
2021/09/20 05:25:05;;;;;;;;;1.00;1.00;;;;;18.56;66.61;101354.84;6278703;22;45287;-73
2021/09/20 05:27:31;;;;;;;;;1.25;1.25;;;;;18.38;66.63;101333.31;6276303;22;45729;-73
2021/09/20 05:29:57;;;;;;;;;1.50;1.50;;;;;18.57;66.67;101353.91;6278840;22;45223;-73
2021/09/20 05:32:23;;;;;;;;;1.00;0.75;;;;;18.49;66.27;101349.81;6279019;22;45083;-73
2021/09/20 05:34:48;;;;;;;;;2.75;1.50;;;;;18.37;66.46;101325.28;6278968;22;45187;-73
2021/09/20 05:37:14;;;;;;;;;2.00;2.00;;;;;18.34;66.51;101326.31;6276309;22;45271;-74
2021/09/20 05:39:39;;;;;;;;;3.00;1.25;;;;;18.53;66.82;101355.91;6279011;22;45460;-73
2021/09/20 05:42:05;;;;;;;;;3.50;1.75;;;;;18.47;66.46;101351.69;6302433;22;45720;-73
2021/09/20 05:44:30;;;;;;;;;2.00;2.00;;;;;18.50;66.36;101354.25;6302342;22;48501;-73
2021/09/20 05:46:55;;;;;;;;;3.00;2.00;;;;;18.50;66.68;101354.25;6278181;22;45335;-73
2021/09/20 05:49:21;;;;;;;;;3.00;3.00;;;;;18.50;66.94;101356.94;6277834;22;45364;-73
2021/09/20 05:51:47;;;;;;;;;2.50;2.50;;;;;18.37;66.81;101341.50;6277463;22;45396;-70
2021/09/20 05:54:12;;;;;;;;;3.75;3.75;;;;;18.21;66.41;101314.44;6276862;22;47986;-71
2021/09/20 05:56:39;;;;;;;;;2.00;1.00;;;;;18.49;66.93;101362.44;6277905;22;45558;-71
2021/09/20 05:59:04;;;;;;;;;3.00;3.00;;;;;18.42;67.10;101350.22;6277862;22;45283;-73
2021/09/20 06:01:30;;;;;;;;;7.25;4.25;;;;;18.30;66.65;101331.03;6278181;22;45156;-75
2021/09/20 06:03:55;;;;;;;;;3.25;3.00;;;;;18.41;67.20;101360.19;6275773;22;47178;-75
2021/09/20 06:06:21;;;;;;;;;5.00;4.50;;;;;18.40;66.86;101358.41;6275652;22;45278;-74
2021/09/20 06:08:46;;;;;;;;;4.00;3.00;;;;;18.39;67.44;101353.97;6275530;22;45588;-74
2021/09/20 06:11:14;;;;;;;;;5.00;5.00;;;;;18.31;67.01;101345.44;6278343;22;45204;-74
2021/09/20 06:13:40;;;;;;;;;6.00;4.25;;;;;18.44;67.51;101373.53;6302200;22;47399;-74
2021/09/20 06:16:06;;;;;;;;;4.75;4.75;;;;;18.22;67.47;101335.97;6276109;22;45425;-74
2021/09/20 06:18:32;;;;;;;;;6.00;6.00;;;;;18.38;67.62;101367.59;6276299;22;45472;-75
2021/09/20 06:20:57;;;;;;;;;4.75;4.75;;;;;18.19;67.79;101332.56;6276276;22;45494;-75
2021/09/20 06:23:23;;;;;;;;;7.75;6.00;;;;;18.46;68.11;101384.22;6278177;22;45283;-75
2021/09/20 06:25:49;;;;;;;;;8.00;7.25;;;;;18.37;67.86;101369.41;6275447;22;45657;-76
2021/09/20 06:28:14;;;;;;;;;10.50;6.50;;;;;18.48;68.11;101380.50;6277419;22;45449;-75
2021/09/20 06:30:40;;;;;;;;;8.50;8.25;;;;;18.42;67.92;101380.81;6278486;22;45248;-75
2021/09/20 06:33:05;;;;;;;;;9.00;7.50;;;;;18.40;67.91;101377.34;6276066;22;47223;-76
2021/09/20 06:35:31;;;;;;;;;7.50;7.50;;;;;18.45;68.07;101379.78;6278682;22;45230;-76
2021/09/20 06:37:57;;;;;;;;;12.50;11.00;;;;;18.37;68.42;101360.41;6276379;22;45396;-75
2021/09/20 06:40:23;;;;;;;;;10.50;10.00;;;;;18.54;68.15;101387.38;6278030;22;45264;-76
2021/09/20 06:42:48;;;;;;;;;10.75;10.75;;;;;18.52;68.36;101381.19;6301910;22;47024;-77
2021/09/20 06:45:23;;;;;;;;;16.25;12.75;;;;;18.42;68.26;101370.00;6277463;22;45220;-72
2021/09/20 06:47:49;;;;;;;;;10.00;10.00;;;;;18.42;68.01;101361.91;6278350;22;45269;-72
2021/09/20 06:50:14;;;;;;;;;12.75;11.75;;;;;18.37;68.36;101355.88;6276895;22;45394;-71
2021/09/20 06:52:42;;;;;;;;;11.75;11.75;;;;;18.49;68.04;101374.16;6277612;22;46297;-72
2021/09/20 06:55:09;;;;;;;;;13.75;11.25;;;;;18.45;67.54;101369.84;6278520;22;45369;-71
2021/09/20 06:57:44;;;;;;;;;12.75;12.00;;;;;18.65;67.59;101403.03;6279685;22;45208;-72
2021/09/20 07:00:13;;;;;;;;;13.00;12.50;;;;;18.65;68.34;101405.72;6279620;22;45506;-72
2021/09/20 07:02:39;;;;;;;;;14.25;13.25;;;;;18.36;68.46;101354.16;6277721;22;47008;-72
2021/09/20 07:05:08;;;;;;;;;12.75;12.50;;;;;18.47;68.28;101372.47;6277914;22;45294;-71
2021/09/20 07:07:38;;;;;;;;;13.00;11.25;;;;;18.60;68.27;101388.88;6277958;22;45448;-72
2021/09/20 07:10:04;;;;;;;;;14.00;12.75;;;;;18.66;68.08;101397.53;6279869;22;45642;-72
2021/09/20 07:12:37;;;;;;;;;12.50;11.75;;;;;18.64;68.21;101403.97;6279140;22;45971;-72
2021/09/20 07:15:04;;;;;;;;;13.00;12.75;;;;;18.69;68.40;101407.28;6279683;22;45592;-72
2021/09/20 07:17:30;;;;;;;;;11.75;9.50;;;;;18.41;68.09;101359.28;6277396;22;45444;-71
2021/09/20 07:19:57;;;;;;;;;14.50;13.25;;;;;18.61;68.47;101396.91;6278101;22;45237;-71
2021/09/20 07:22:23;;;;;;;;;13.75;13.00;;;;;18.56;68.52;101387.28;6278817;22;47233;-71
2021/09/20 07:24:48;;;;;;;;;12.50;11.75;;;;;18.48;68.80;101385.03;6280826;22;45397;-72
2021/09/20 07:27:14;;;;;;;;;11.75;10.50;;;;;18.56;68.76;101404.41;6304367;22;45287;-71
2021/09/20 07:29:42;;;;;;;;;15.25;14.00;;;;;18.47;69.05;101385.97;6279796;22;45472;-72
2021/09/20 07:32:15;;;;;;;;;17.00;13.00;;;;;18.50;68.72;101397.50;6280531;22;45576;-71
2021/09/20 07:34:41;;;;;;;;;15.25;13.00;;;;;18.69;69.10;101431.63;6280694;22;45451;-72
2021/09/20 07:37:06;;;;;;;;;14.75;12.50;;;;;18.60;68.56;101411.38;6280254;22;45255;-72
2021/09/20 07:39:34;;;;;;;;;13.00;11.50;;;;;18.60;68.65;101402.41;6280099;22;45166;-71
2021/09/20 07:42:00;;;;;;;;;14.00;12.25;;;;;18.60;68.50;101410.50;6304367;22;46337;-72
2021/09/20 07:44:33;;;;;;;;;11.00;9.25;;;;;18.64;68.95;101410.28;6280104;22;45523;-71
2021/09/20 07:46:58;;;;;;;;;14.00;14.00;;;;;18.60;69.12;101408.69;6280008;22;45303;-71
2021/09/20 07:49:26;;;;;;;;;14.25;12.75;;;;;18.76;68.93;101446.56;6280130;22;45532;-72
2021/09/20 07:51:52;;;;;;;;;15.00;13.50;;;;;18.62;69.21;101416.69;6278501;22;47913;-72
2021/09/20 07:54:17;;;;;;;;;15.00;12.25;;;;;18.82;68.87;101445.34;6280635;22;45230;-71
2021/09/20 07:56:43;;;;;;;;;14.00;13.50;;;;;18.57;68.95;101402.56;6279595;22;45397;-72
2021/09/20 07:59:08;;;;;;;;;13.50;13.50;;;;;18.64;68.48;101403.97;6279151;22;45508;-71
2021/09/20 08:01:34;;;;;;;;;16.75;15.00;;;;;18.76;69.03;101424.03;6276247;22;47584;-75
2021/09/20 08:04:12;;;;;;;;;;;;;;;;;;;;;
2021/09/20 08:06:38;;;;;;;;;14.75;13.50;;;;;18.87;68.84;101438.72;6276512;22;67406;-78
2021/09/20 08:09:12;;;;;;;;;15.00;15.00;;;;;18.87;68.52;101441.44;6275859;22;45297;-65
2021/09/20 11:16:52;;;;;;;;;13.00;12.50;;;;;19.90;67.60;101534.00;6276913;22;45413;-64
2021/09/20 11:19:35;;;;;;;;;16.00;15.00;;;;;19.92;66.96;101526.66;6247396;22;45496;-63
2021/09/20 11:22:14;;;;;;;;;14.25;13.25;;;;;19.94;67.19;101535.53;6248830;22;46541;-64
2021/09/20 11:24:52;;;;;;;;;;;;;;;;;;;;;
2021/09/20 11:27:38;;;;;;;;;11.75;11.75;;;;;19.66;66.45;101496.50;6275671;22;67522;-63
2021/09/20 11:30:28;;;;;;;;;14.50;14.00;;;;;19.91;67.09;101527.59;6276223;22;45326;-63
2021/09/20 11:33:11;;;;;;;;;;;;;;;;;;;;;
2021/09/20 11:36:21;;;;;;;;;;;;;;;;;;;;;
2021/09/20 11:39:07;;;;;;;;;15.00;13.00;;;;;19.88;67.24;101534.09;6271331;22;69406;-64
2021/09/20 11:41:34;;;;;;;;;10.75;10.75;;;;;19.89;66.61;101533.09;6271727;22;45643;-73
2021/09/20 11:44:25;;;;;;;;;;;;;;;;;;;;;
2021/09/20 11:47:40;;;;;;;;;;;;;;;;;;;;;
2021/09/20 11:53:33;;;;;;;;;9.25;9.25;;;;;19.92;66.38;101530.22;6261587;22;45721;-72
2021/09/20 11:56:05;;;;;;;;;14.00;13.00;;;;;20.09;67.02;101556.31;6244406;22;48183;-71
2021/09/20 11:58:31;;;;;;;;;9.25;9.25;;;;;19.72;66.63;101493.44;6245022;22;45548;-73
2021/09/20 12:00:56;;;;;;;;;13.75;12.50;;;;;19.91;66.53;101533.91;6273916;22;45495;-73
2021/09/20 12:03:25;;;;;;;;;14.00;14.00;;;;;20.07;66.41;101554.66;6205701;22;45408;-70
2021/09/20 12:05:51;;;;;;;;;13.50;12.50;;;;;19.97;66.61;101536.22;6269607;22;46134;-72
2021/09/20 12:08:25;;;;;;;;;13.25;12.75;;;;;19.90;66.19;101518.59;6244587;22;45476;-70
2021/09/20 12:14:13;;;;;;;;;10.50;9.75;;;;;20.07;66.72;101541.13;6251066;22;45797;-70
2021/09/20 12:16:48;;;;;;;;;9.25;9.25;;;;;20.15;66.55;101555.09;6241636;22;45406;-70
2021/09/20 12:19:44;;;;;;;;;13.00;13.00;;;;;20.14;66.19;101550.63;6242051;22;45315;-70
2021/09/20 12:22:15;;;;;;;;;11.00;11.00;;;;;20.07;66.62;101541.97;6241702;22;45489;-71
2021/09/20 12:25:02;;;;;;;;;;;;;;;;;;;;;
2021/09/20 12:27:41;;;;;;;;;11.00;11.00;;;;;20.09;66.95;101542.75;6239243;22;73664;-70
2021/09/20 12:30:23;;;;;;;;;;;;;;;;;;;;;
2021/09/20 12:32:49;;;;;;;;;16.00;12.25;;;;;20.17;66.30;101561.28;6241980;22;69456;-73
2021/09/20 12:35:15;;;;;;;;;9.25;9.25;;;;;20.07;66.42;101543.81;6246677;22;45437;-75
2021/09/20 12:37:41;;;;;;;;;9.00;9.00;;;;;20.07;66.33;101544.69;6244648;22;45600;-70
2021/09/20 12:40:24;;;;;;;;;10.25;9.50;;;;;20.30;66.74;101573.13;6246424;22;45093;-70
2021/09/20 12:43:14;;;;;;;;;32.75;31.00;;;;;20.27;66.56;101576.03;6245951;22;45285;-73
2021/09/20 12:45:47;;;;;;;;;16.00;16.00;;;;;20.00;66.27;101527.06;6246933;22;45328;-73
2021/09/20 12:48:15;;;;;;;;;16.25;15.00;;;;;20.18;66.06;101554.91;6270351;22;48582;-72
2021/09/20 12:50:48;;;;;;;;;13.25;11.00;;;;;20.12;66.45;101541.72;6245092;22;46095;-72
2021/09/20 12:53:28;;;;;;;;;13.75;12.25;;;;;20.30;66.48;101573.13;6247209;22;45324;-76
2021/09/20 12:55:57;;;;;;;;;14.75;13.25;;;;;19.99;66.02;101523.47;6247328;22;45151;-75
2021/09/20 12:58:36;;;;;;;;;12.75;11.25;;;;;20.34;66.45;101581.94;6246288;22;46082;-75
2021/09/20 13:01:10;;;;;;;;;15.00;13.00;;;;;20.34;66.42;101577.38;6247725;22;45107;-75
2021/09/20 13:03:43;;;;;;;;;13.00;13.00;;;;;20.17;66.39;101555.88;6245968;22;45391;-76
2021/09/20 13:06:16;;;;;;;;;7.00;6.00;;;;;20.28;66.83;101569.66;6246976;22;45324;-71
2021/09/20 13:09:20;;;;;;;;;9.75;9.75;;;;;20.09;65.84;101541.91;6241043;22;46471;-70
2021/09/20 13:11:58;;;;;;;;;;;;;;;;;;;;;
2021/09/20 13:14:55;;;;;;;;;;;;;;;;;;;;;
2021/09/20 13:18:10;;;;;;;;;14.00;12.75;;;;;20.25;66.08;101559.00;6223654;22;70606;-70
2021/09/20 13:20:36;;;;;;;;;11.50;10.00;;;;;20.41;65.70;101575.19;6237001;22;46724;-73
2021/09/20 13:23:53;;;;;;;;;;;;;;;;;;;;;
2021/09/20 13:27:01;;;;;;;;;5.50;5.50;;;;;20.38;65.16;101569.06;6219014;22;68909;-70
2021/09/20 13:29:26;;;;;;;;;5.00;5.00;;;;;20.23;64.17;101533.81;6245818;22;45293;-72
2021/09/20 13:32:22;;;;;;;;;;;;;;;;;;;;;
2021/09/20 13:35:34;;;;;;;;;;;;;;;;;;;;;
2021/09/20 13:38:22;;;;;;;;;;;;;;;;;;;;;
2021/09/20 13:41:23;;;;;;;;;8.00;7.25;;;;;20.51;63.36;101560.13;6246092;22;72654;-69
2021/09/20 13:44:00;;;;;;;;;8.50;7.75;;;;;20.51;63.20;101552.00;6244439;22;46214;-70
2021/09/20 13:52:38;;;;;;;;;;;;;;;;;;;;;
2021/09/20 13:55:41;;;;;;;;;7.50;7.50;;;;;20.74;63.99;101568.69;6240527;22;74497;-70
2021/09/20 13:58:48;;;;;;;;;;;;;;;;;;;;;
2021/09/20 14:01:27;;;;;;;;;;;;;;;;;;;;;
2021/09/20 14:03:57;;;;;;;;;13.25;13.00;;;;;20.81;63.13;101561.91;6246459;22;72694;-70
2021/09/20 14:06:23;;;;;;;;;8.00;8.00;;;;;20.91;62.94;101570.34;6247676;22;45412;-72
2021/09/20 14:08:49;;;;;;;;;6.50;6.50;;;;;20.77;61.94;101545.94;6271397;22;45267;-72
2021/09/20 14:11:15;;;;;;;;;11.50;8.50;;;;;20.82;62.09;101551.94;6247782;22;45223;-76
2021/09/20 14:13:41;;;;;;;;;7.00;7.00;;;;;20.92;62.37;101563.97;6247532;22;45349;-72
2021/09/20 14:16:07;;;;;;;;;9.75;8.50;;;;;20.98;61.62;101563.59;6252920;22;48396;-72
2021/09/20 14:18:33;;;;;;;;;7.50;7.00;;;;;20.95;61.57;101563.78;6242624;22;45296;-72
2021/09/20 14:21:00;;;;;;;;;9.25;7.00;;;;;20.88;62.69;101556.97;6244875;22;45252;-72
2021/09/20 14:23:26;;;;;;;;;7.25;7.25;;;;;20.87;62.19;101550.69;6247247;22;45254;-72
2021/09/20 14:25:51;;;;;;;;;9.75;8.00;;;;;20.88;62.34;101547.00;6247055;22;45562;-72
2021/09/20 14:28:20;;;;;;;;;8.50;8.25;;;;;20.84;61.84;101534.59;6246690;22;45509;-72
2021/09/20 14:30:46;;;;;;;;;8.25;7.00;;;;;21.01;62.60;101568.78;6245389;22;45492;-72
2021/09/20 14:33:12;;;;;;;;;12.00;10.25;;;;;20.83;62.63;101543.72;6245014;22;45393;-72
2021/09/20 14:35:38;;;;;;;;;8.00;8.00;;;;;20.83;62.74;101538.28;6270946;22;47909;-72
2021/09/20 14:38:04;;;;;;;;;8.50;8.25;;;;;20.97;62.58;101567.25;6246998;22;45100;-72
2021/09/20 14:40:32;;;;;;;;;6.25;6.25;;;;;21.01;62.60;101573.34;6247396;22;45244;-72
2021/09/20 14:42:58;;;;;;;;;9.00;7.75;;;;;21.02;63.62;101567.84;6246773;22;45288;-72
2021/09/20 14:45:25;;;;;;;;;6.00;6.00;;;;;20.76;63.03;101530.63;6246449;22;45478;-72
2021/09/20 14:47:52;;;;;;;;;9.50;8.00;;;;;21.00;63.04;101572.50;6246341;22;45528;-72
2021/09/20 14:50:21;;;;;;;;;8.75;8.75;;;;;21.07;62.72;101587.41;6244984;22;45388;-72
2021/09/20 14:52:47;;;;;;;;;7.00;7.00;;;;;21.07;62.50;101583.84;6247321;22;45287;-72
2021/09/20 14:55:14;;;;;;;;;8.25;7.75;;;;;20.98;62.52;101571.72;6246676;22;45901;-72
2021/09/20 14:57:41;;;;;;;;;8.25;7.25;;;;;21.07;63.03;101587.41;6246021;22;45261;-72
2021/09/20 15:00:09;;;;;;;;;5.25;5.25;;;;;21.07;62.44;101587.41;6247126;22;45368;-73
2021/09/20 15:02:35;;;;;;;;;7.25;7.25;;;;;21.08;62.84;101585.56;6247142;22;45253;-72
2021/09/20 15:05:00;;;;;;;;;7.00;6.25;;;;;21.04;62.26;101578.59;6247041;22;45482;-73
2021/09/20 15:07:26;;;;;;;;;7.00;6.00;;;;;21.07;62.79;101601.00;6246807;22;45156;-73
2021/09/20 15:09:54;;;;;;;;;7.00;7.00;;;;;21.02;62.56;101592.25;6246774;22;45165;-72
2021/09/20 15:12:20;;;;;;;;;6.50;6.00;;;;;21.00;62.19;101594.22;6243112;22;45461;-73